createdAt,value
2024-03-03T00:03:22.074Z,3.45
2024-03-03T00:08:24.704Z,2.92
2024-03-03T00:13:28.744Z,3.05
2024-03-03T00:18:30.185Z,3.45
2024-03-03T00:23:31.649Z,2.78
2024-03-03T00:28:33.686Z,3.70
2024-03-03T00:33:35.389Z,3.10
2024-03-03T00:38:38.757Z,3.40
2024-03-03T00:43:40.816Z,3.13
2024-03-03T00:48:42.311Z,3.45
2024-03-03T00:53:44.098Z,3.47
2024-03-03T00:58:45.570Z,3.33
2024-03-03T01:03:48.281Z,3.75
2024-03-03T01:08:49.796Z,3.50
2024-03-03T01:13:51.334Z,3.60
2024-03-03T01:18:52.974Z,3.85
2024-03-03T01:23:54.684Z,3.63
2024-03-03T01:28:56.602Z,3.80
2024-03-03T01:33:58.145Z,3.60
2024-03-03T01:38:59.605Z,3.65
2024-03-03T01:44:01.064Z,3.45
2024-03-03T01:49:02.674Z,3.67
2024-03-03T01:54:05.389Z,3.38
2024-03-03T01:59:10.103Z,3.90
2024-03-03T02:04:13.086Z,3.63
2024-03-03T02:09:16.142Z,3.38
2024-03-03T02:14:17.673Z,3.70
2024-03-03T02:19:19.281Z,4.00
2024-03-03T02:24:21.201Z,3.67
2024-03-03T02:29:23.499Z,4.13
2024-03-03T02:34:26.334Z,3.47
2024-03-03T02:39:27.890Z,3.97
2024-03-03T02:44:29.419Z,3.97
2024-03-03T02:49:30.894Z,4.13
2024-03-03T02:54:32.365Z,3.85
2024-03-03T02:59:34.937Z,4.03
2024-03-03T03:04:36.316Z,4.38
2024-03-03T03:09:38.158Z,4.65
2024-03-03T03:14:39.802Z,4.55
2024-03-03T03:19:44.828Z,4.20
2024-03-03T03:24:46.336Z,4.78
2024-03-03T03:29:50.888Z,4.45
2024-03-03T03:34:52.358Z,4.70
2024-03-03T03:39:54.407Z,4.53
2024-03-03T03:44:55.837Z,4.88
2024-03-03T03:49:57.322Z,4.60
2024-03-03T03:54:58.896Z,4.32
2024-03-03T04:00:02.666Z,4.57
2024-03-03T04:05:05.920Z,4.68
2024-03-03T04:10:08.837Z,4.78
2024-03-03T04:15:10.691Z,4.65
2024-03-03T04:20:12.448Z,5.40
2024-03-03T04:25:13.984Z,5.13
2024-03-03T04:30:17.950Z,5.20
2024-03-03T04:35:19.434Z,5.07
2024-03-03T04:40:20.967Z,4.82
2024-03-03T04:45:22.533Z,5.25
2024-03-03T04:50:24.107Z,5.57
2024-03-03T04:55:25.843Z,4.95
2024-03-03T05:00:27.408Z,5.60
2024-03-03T05:05:28.911Z,6.00
2024-03-03T05:10:30.451Z,5.25
2024-03-03T05:15:32.929Z,5.47
2024-03-03T05:20:34.368Z,5.75
2024-03-03T05:25:36.855Z,5.32
2024-03-03T05:30:39.937Z,5.22
2024-03-03T05:35:43.305Z,5.10
2024-03-03T05:40:44.881Z,5.70
2024-03-03T05:45:46.429Z,5.13
2024-03-03T05:50:47.944Z,5.45
2024-03-03T05:55:49.427Z,6.22
2024-03-03T06:00:50.937Z,6.50
2024-03-03T06:05:52.467Z,5.93
2024-03-03T06:10:55.139Z,5.85
2024-03-03T06:15:56.672Z,5.80
2024-03-03T06:20:58.929Z,6.18
2024-03-03T06:26:02.635Z,5.85
2024-03-03T06:31:04.232Z,6.38
2024-03-03T06:36:05.962Z,6.00
2024-03-03T06:41:07.898Z,6.28
2024-03-03T06:46:12.756Z,7.45
2024-03-03T06:51:15.347Z,6.70
2024-03-03T06:56:17.549Z,6.60
2024-03-03T07:01:19.666Z,6.60
2024-03-03T07:06:21.409Z,6.60
2024-03-03T07:11:23.022Z,6.72
2024-03-03T07:16:24.592Z,7.53
2024-03-03T07:21:26.445Z,6.88
2024-03-03T07:26:28.004Z,6.50
2024-03-03T07:31:29.606Z,5.80
2024-03-03T07:36:31.199Z,6.68
2024-03-03T07:41:32.724Z,7.45
2024-03-03T07:46:36.814Z,6.65
2024-03-03T07:51:38.474Z,6.45
2024-03-03T07:56:40.068Z,6.57
2024-03-03T08:01:42.064Z,6.45
2024-03-03T08:06:43.913Z,6.40
2024-03-03T08:11:45.827Z,6.93
2024-03-03T08:16:47.310Z,6.82
2024-03-03T08:21:49.566Z,6.65
2024-03-03T08:26:51.264Z,6.78
2024-03-03T08:31:52.737Z,7.00
2024-03-03T08:36:54.257Z,6.70
2024-03-03T08:41:55.906Z,7.15
2024-03-03T08:46:57.383Z,7.45
2024-03-03T08:51:59.379Z,6.53
2024-03-03T08:57:00.906Z,7.80
2024-03-03T09:02:03.357Z,7.78
2024-03-03T09:07:05.894Z,6.63
2024-03-03T09:12:07.730Z,7.28
2024-03-03T09:17:09.664Z,7.20
2024-03-03T09:22:11.229Z,7.20
2024-03-03T09:27:13.032Z,6.97
2024-03-03T09:32:14.676Z,6.95
2024-03-03T09:37:16.241Z,6.88
2024-03-03T09:42:17.802Z,7.15
2024-03-03T09:47:20.876Z,7.60
2024-03-03T09:52:23.187Z,7.00
2024-03-03T09:57:24.774Z,7.30
2024-03-03T10:02:27.348Z,6.60
2024-03-03T10:07:30.373Z,7.18
2024-03-03T10:12:32.750Z,7.13
2024-03-03T10:17:34.370Z,7.35
2024-03-03T10:22:36.174Z,6.93
2024-03-03T10:27:42.547Z,6.72
2024-03-03T10:32:44.988Z,7.38
2024-03-03T10:37:53.450Z,7.30
2024-03-03T10:42:56.195Z,8.05
2024-03-03T10:47:58.552Z,8.05
2024-03-03T10:53:01.768Z,7.10
2024-03-03T10:58:03.627Z,8.00
2024-03-03T11:03:05.619Z,7.30
2024-03-03T11:08:07.626Z,8.15
2024-03-03T11:13:11.653Z,7.82
2024-03-03T11:18:18.723Z,7.90
2024-03-03T11:23:24.094Z,8.32
2024-03-03T11:28:28.411Z,8.52
2024-03-03T11:33:30.909Z,8.80
2024-03-03T11:38:45.214Z,8.57
2024-03-03T11:43:46.759Z,8.45
2024-03-03T11:48:57.055Z,8.88
2024-03-03T11:53:59.768Z,8.50
2024-03-03T11:59:01.656Z,8.23
2024-03-03T12:04:03.677Z,9.70
2024-03-03T12:09:12.073Z,7.85
2024-03-03T12:14:13.902Z,8.35
2024-03-03T12:19:16.504Z,8.48
2024-03-03T12:24:18.817Z,8.23
2024-03-03T12:29:20.310Z,8.35
2024-03-03T12:34:21.833Z,8.27
2024-03-03T12:39:26.268Z,8.88
2024-03-03T12:44:27.990Z,8.15
2024-03-03T12:49:30.538Z,7.13
2024-03-03T12:54:32.140Z,7.00
2024-03-03T12:59:34.165Z,6.93
2024-03-03T13:04:35.754Z,6.85
2024-03-03T13:09:40.601Z,6.72
2024-03-03T13:14:42.100Z,5.85
2024-03-03T13:19:49.002Z,5.95
2024-03-03T13:24:56.417Z,5.72
2024-03-03T13:30:04.807Z,5.95
2024-03-03T13:35:06.431Z,5.18
2024-03-03T13:40:08.538Z,4.93
2024-03-03T13:45:11.837Z,4.82
2024-03-03T13:50:13.632Z,4.40
2024-03-03T13:55:15.293Z,4.30
2024-03-03T14:00:16.953Z,4.13
2024-03-03T14:05:18.762Z,4.05
2024-03-03T14:10:20.451Z,4.50
2024-03-03T14:15:22.262Z,4.75
2024-03-03T14:20:25.705Z,3.90
2024-03-03T14:25:28.120Z,4.15
2024-03-03T14:30:29.786Z,4.05
2024-03-03T14:35:31.299Z,4.00
2024-03-03T14:40:33.000Z,3.95
2024-03-03T14:45:36.604Z,3.20
2024-03-03T14:50:38.121Z,2.42
2024-03-03T14:55:39.716Z,3.08
2024-03-03T15:00:41.344Z,2.88
2024-03-03T15:05:43.161Z,2.42
2024-03-03T15:10:44.838Z,2.55
2024-03-03T15:15:46.653Z,2.28
2024-03-03T15:20:48.351Z,2.20
2024-03-03T15:25:49.841Z,1.98
2024-03-03T15:30:51.412Z,2.10
2024-03-03T15:35:53.333Z,1.83
2024-03-03T15:40:55.056Z,1.30
2024-03-03T15:45:58.176Z,1.77
2024-03-03T15:50:59.671Z,1.90
2024-03-03T15:56:01.336Z,1.92
2024-03-03T16:01:02.930Z,1.80
2024-03-03T16:06:04.671Z,1.90
2024-03-03T16:11:07.529Z,2.58
2024-03-03T16:16:09.243Z,2.90
2024-03-03T16:21:10.774Z,4.40
2024-03-03T16:26:12.768Z,6.90
2024-03-03T16:31:14.424Z,9.60
2024-03-03T16:36:17.347Z,13.45
2024-03-03T16:41:22.769Z,9.02
2024-03-03T16:46:25.293Z,7.57
2024-03-03T16:51:26.965Z,8.93
2024-03-03T16:56:28.479Z,7.93
2024-03-03T17:01:30.010Z,8.25
2024-03-03T17:06:31.658Z,8.48
2024-03-03T17:11:35.630Z,7.82
2024-03-03T17:16:37.324Z,8.00
2024-03-03T17:21:39.178Z,8.52
2024-03-03T17:26:41.017Z,8.82
2024-03-03T17:31:43.055Z,8.82
2024-03-03T17:36:44.780Z,9.77
2024-03-03T17:41:46.781Z,9.07
2024-03-03T17:46:48.301Z,8.23
2024-03-03T17:51:49.778Z,8.60
2024-03-03T17:56:51.273Z,8.15
2024-03-03T18:01:52.939Z,7.00
2024-03-03T18:06:54.673Z,7.03
2024-03-03T18:11:56.191Z,8.20
2024-03-03T18:16:57.805Z,7.40
2024-03-03T18:21:59.440Z,6.93
2024-03-03T18:27:01.621Z,6.63
2024-03-03T18:32:03.362Z,11.20
2024-03-03T18:37:08.170Z,8.55
2024-03-03T18:42:13.005Z,6.95
2024-03-03T18:47:15.441Z,6.75
2024-03-03T18:52:16.987Z,7.63
2024-03-03T18:57:19.290Z,6.50
2024-03-03T19:02:23.181Z,7.60
2024-03-03T19:07:25.050Z,6.90
2024-03-03T19:12:26.861Z,7.35
2024-03-03T19:17:28.380Z,7.63
2024-03-03T19:22:30.144Z,8.25
2024-03-03T19:27:31.766Z,8.75
2024-03-03T19:32:33.642Z,9.02
2024-03-03T19:37:36.746Z,9.40
2024-03-03T19:42:39.368Z,12.50
2024-03-03T19:47:42.194Z,12.52
2024-03-03T19:52:43.881Z,11.93
2024-03-03T19:57:45.671Z,9.88
2024-03-03T20:02:49.316Z,10.40
2024-03-03T20:07:50.992Z,9.55
2024-03-03T20:12:52.668Z,9.10
2024-03-03T20:17:54.288Z,10.10
2024-03-03T20:22:55.783Z,9.52
2024-03-03T20:27:58.644Z,11.13
2024-03-03T20:33:00.490Z,9.32
2024-03-03T20:38:04.180Z,9.55
2024-03-03T20:43:05.815Z,10.45
2024-03-03T20:48:07.597Z,10.43
2024-03-03T20:53:09.209Z,11.35
2024-03-03T20:58:10.887Z,10.48
2024-03-03T21:03:12.418Z,10.20
2024-03-03T21:08:15.185Z,10.18
2024-03-03T21:13:18.076Z,11.90
2024-03-03T21:18:20.171Z,11.07
2024-03-03T21:23:21.688Z,12.10
2024-03-03T21:28:26.921Z,12.65
2024-03-03T21:33:28.525Z,11.70
2024-03-03T21:38:30.043Z,12.13
2024-03-03T21:43:31.700Z,11.73
2024-03-03T21:48:33.216Z,12.85
2024-03-03T21:53:35.036Z,12.35
2024-03-03T21:58:41.121Z,12.60
2024-03-03T22:03:43.422Z,11.75
2024-03-03T22:08:44.908Z,13.00
2024-03-03T22:13:46.443Z,12.90
2024-03-03T22:18:48.009Z,12.07
2024-03-03T22:23:49.560Z,12.45
2024-03-03T22:28:50.990Z,12.60
2024-03-03T22:33:52.643Z,11.77
2024-03-03T22:38:54.139Z,12.48
2024-03-03T22:43:55.594Z,12.27
2024-03-03T22:48:57.390Z,11.32
2024-03-03T22:53:58.901Z,12.02
2024-03-03T22:59:00.432Z,12.75
2024-03-03T23:04:01.974Z,11.57
2024-03-03T23:09:06.271Z,11.50
2024-03-03T23:14:07.963Z,11.00
2024-03-03T23:19:12.368Z,13.55
2024-03-03T23:24:13.935Z,11.75
2024-03-03T23:29:15.665Z,12.45
2024-03-03T23:34:19.666Z,11.95
2024-03-03T23:39:21.110Z,13.40
2024-03-03T23:44:22.699Z,13.25
2024-03-03T23:49:24.322Z,14.05
2024-03-03T23:54:25.777Z,12.68
2024-03-03T23:59:27.510Z,12.13
